Time;durP1;ratioP1;P1;durP2;ratioP2;P2;SDS_P1;SDS_P2;PMS_P1;PMS_P2;Temp;Humidity;BMP_temperature;BMP_pressure;BME280_temperature;BME280_humidity;BME280_pressure;Samples;Min_cycle;Max_cycle;Signal;HPM_P1;HPM_P2
2021/11/05 00:00:24;;;;;;;;;;;;;;;17.94;59.32;99979.97;2101508;27;19970;-65
2021/11/05 00:01:24;;;;;;;;;;;;;;;17.94;59.41;99979.97;2103643;27;20435;-67
2021/11/05 00:02:29;;;;;;;;;;;;;;;17.92;59.30;99976.50;2121464;27;20293;-67
2021/11/05 00:03:29;;;;;;;;;;;;;;;17.93;59.53;99972.78;2117658;27;19995;-67
2021/11/05 00:04:29;;;;;;;;;;;;;;;17.94;59.28;99979.97;2113854;28;19919;-67
2021/11/05 00:05:31;;;;;;;;;;;;;;;17.93;59.28;99983.72;2117505;27;19919;-68
2021/11/05 00:06:31;;;;;;;;;;;;;;;17.94;59.36;99981.84;2105353;28;19916;-67
2021/11/05 00:07:31;;;;;;;;;;;;;;;17.93;59.28;99983.72;2112569;28;19912;-68
2021/11/05 00:08:32;;;;;;;;;;;;;;;17.93;59.51;99977.38;2121128;27;19954;-67
2021/11/05 00:09:32;;;;;;;;;;;;;;;17.93;59.45;99980.97;2122154;27;19960;-67
2021/11/05 00:10:33;;;;;;;;;;;;;;;17.93;59.28;99986.44;2121270;27;19947;-67
2021/11/05 00:11:33;;;;;;;;;;;;;;;17.93;59.54;99977.38;2111690;28;19995;-67
2021/11/05 00:12:34;;;;;;;;;;;;;;;17.92;59.47;99984.69;2112667;28;20396;-67
2021/11/05 00:13:36;;;;;;;;;;;;;;;17.93;59.44;99988.28;2120462;27;20070;-68
2021/11/05 00:14:37;;;;;;;;;;;;;;;17.93;59.45;99988.28;2121694;27;19912;-67
2021/11/05 00:15:37;;;;;;;;;;;;;;;17.93;59.46;99991.88;2105833;28;19966;-67
2021/11/05 00:16:38;;;;;;;;;;;;;;;17.92;59.44;99992.88;2108452;28;19916;-67
2021/11/05 00:17:38;;;;;;;;;;;;;;;17.92;59.52;99992.88;2122077;27;19998;-68
2021/11/05 00:18:38;;;;;;;;;;;;;;;17.91;59.45;99985.72;2120693;27;19912;-67
2021/11/05 00:19:39;;;;;;;;;;;;;;;17.92;59.54;99987.41;2111667;28;19931;-67
2021/11/05 00:20:39;;;;;;;;;;;;;;;17.92;59.34;99992.88;2112499;28;19945;-67
2021/11/05 00:21:39;;;;;;;;;;;;;;;17.92;59.22;100001.06;2119569;27;20366;-68
2021/11/05 00:22:40;;;;;;;;;;;;;;;17.92;59.47;99992.03;2114494;27;20207;-67
2021/11/05 00:23:40;;;;;;;;;;;;;;;17.91;59.50;99988.44;2119490;27;20144;-67
2021/11/05 00:24:40;;;;;;;;;;;;;;;17.92;59.25;99997.47;2121598;27;19915;-68
2021/11/05 00:25:41;;;;;;;;;;;;;;;17.91;59.29;99985.72;2122172;27;19916;-67
2021/11/05 00:26:42;;;;;;;;;;;;;;;17.92;59.37;99986.56;2124026;27;20235;-68
2021/11/05 00:27:43;;;;;;;;;;;;;;;17.90;59.31;99989.44;2120515;27;19918;-67
2021/11/05 00:28:43;;;;;;;;;;;;;;;17.91;59.45;99991.16;2114075;27;19923;-67
2021/11/05 00:29:43;;;;;;;;;;;;;;;17.91;59.28;99991.16;2112618;28;20607;-66
2021/11/05 00:30:45;;;;;;;;;;;;;;;17.91;59.47;99993.03;2112183;28;19915;-66
2021/11/05 00:31:45;;;;;;;;;;;;;;;17.92;59.42;99992.03;2121889;27;19926;-67
2021/11/05 00:32:46;;;;;;;;;;;;;;;17.91;59.30;99996.63;2120756;27;19918;-66
2021/11/05 00:33:47;;;;;;;;;;;;;;;17.91;59.44;99995.75;2121000;27;20377;-66
2021/11/05 00:34:53;;;;;;;;;;;;;;;17.90;59.48;100000.34;2120260;27;20082;-67
2021/11/05 00:35:53;;;;;;;;;;;;;;;17.90;59.36;99997.59;2118825;27;19972;-66
2021/11/05 00:36:53;;;;;;;;;;;;;;;17.90;59.44;99994.88;2113903;27;19912;-66
2021/11/05 00:37:54;;;;;;;;;;;;;;;17.90;59.49;99994.03;2121218;27;19972;-66
2021/11/05 00:38:54;;;;;;;;;;;;;;;17.91;59.33;99991.16;2120278;27;19920;-66
2021/11/05 00:39:55;;;;;;;;;;;;;;;17.91;59.30;100004.81;2122025;27;19920;-67
2021/11/05 00:40:55;;;;;;;;;;;;;;;17.91;59.37;99999.34;2108170;28;19916;-67
2021/11/05 00:41:55;;;;;;;;;;;;;;;17.90;59.40;99999.47;2104722;28;19922;-66
2021/11/05 00:42:56;;;;;;;;;;;;;;;17.90;59.40;99994.03;2112929;28;19923;-65
2021/11/05 00:43:56;;;;;;;;;;;;;;;17.90;59.31;99994.03;2111730;28;19915;-66
2021/11/05 00:44:56;;;;;;;;;;;;;;;17.89;59.46;99993.16;2113234;28;19922;-66
2021/11/05 00:45:57;;;;;;;;;;;;;;;17.88;59.15;99991.44;2115889;27;19977;-66
2021/11/05 00:46:57;;;;;;;;;;;;;;;17.90;59.48;99988.56;2111246;28;19935;-66
2021/11/05 00:47:57;;;;;;;;;;;;;;;17.90;59.28;99989.44;2112633;28;19999;-66
2021/11/05 00:49:00;;;;;;;;;;;;;;;17.89;59.21;99990.44;2115211;27;19931;-66
2021/11/05 00:50:00;;;;;;;;;;;;;;;17.89;59.40;99987.72;2113078;28;19927;-66
2021/11/05 00:51:00;;;;;;;;;;;;;;;17.88;59.48;99991.44;2117509;27;19919;-66
2021/11/05 00:52:01;;;;;;;;;;;;;;;17.88;59.31;99994.16;2112133;27;19916;-66
2021/11/05 00:53:01;;;;;;;;;;;;;;;17.90;59.25;99994.03;2104260;28;20231;-66
2021/11/05 00:54:02;;;;;;;;;;;;;;;17.88;59.23;99996.88;2110767;28;20027;-66
2021/11/05 00:55:02;;;;;;;;;;;;;;;17.88;59.43;99999.63;2115139;27;19919;-67
2021/11/05 00:56:03;;;;;;;;;;;;;;;17.89;59.43;99997.78;2121628;27;20267;-66
2021/11/05 00:57:04;;;;;;;;;;;;;;;17.88;59.22;99996.88;2120554;27;19926;-66
2021/11/05 00:58:04;;;;;;;;;;;;;;;17.88;59.36;100002.34;2120523;27;19918;-66
2021/11/05 00:59:04;;;;;;;;;;;;;;;17.87;59.43;100000.63;2117929;27;19916;-66
2021/11/05 01:00:07;;;;;;;;;;;;;;;17.87;59.34;100000.63;2116560;27;20015;-66
2021/11/05 01:01:08;;;;;;;;;;;;;;;17.88;59.27;100005.06;2114636;27;20007;-66
2021/11/05 01:02:09;;;;;;;;;;;;;;;17.88;59.35;100007.78;2117301;27;20374;-67
2021/11/05 01:03:09;;;;;;;;;;;;;;;17.87;59.43;100011.53;2121699;27;19946;-67
2021/11/05 01:04:09;;;;;;;;;;;;;;;17.87;59.28;100011.53;2120733;27;20289;-66
2021/11/05 01:05:11;;;;;;;;;;;;;;;17.87;59.26;100011.53;2120808;27;19915;-66
2021/11/05 01:06:13;;;;;;;;;;;;;;;17.88;59.48;100013.25;2121261;27;20301;-66
2021/11/05 01:07:13;;;;;;;;;;;;;;;17.87;59.30;100011.53;2117027;27;19966;-66
2021/11/05 01:08:14;;;;;;;;;;;;;;;17.88;59.17;100024.16;2114760;27;20208;-66
2021/11/05 01:09:14;;;;;;;;;;;;;;;17.86;59.28;100020.75;2121822;27;19918;-66
2021/11/05 01:10:14;;;;;;;;;;;;;;;17.87;59.38;100021.59;2119238;27;19911;-66
2021/11/05 01:11:15;;;;;;;;;;;;;;;17.87;59.47;100024.31;2110991;28;19916;-67
2021/11/05 01:12:15;;;;;;;;;;;;;;;17.87;59.34;100027.03;2110720;28;19916;-66
2021/11/05 01:13:15;;;;;;;;;;;;;;;17.87;59.21;100017.00;2118908;27;19946;-66
2021/11/05 01:14:16;;;;;;;;;;;;;;;17.87;59.35;100022.44;2112696;28;20376;-66
2021/11/05 01:15:16;;;;;;;;;;;;;;;17.87;59.26;100032.50;2111741;28;19967;-66
2021/11/05 01:16:17;;;;;;;;;;;;;;;17.86;59.20;100026.19;2121227;27;20059;-66
2021/11/05 01:17:17;;;;;;;;;;;;;;;17.87;59.17;100029.78;2104104;28;20394;-67
2021/11/05 01:18:20;;;;;;;;;;;;;;;17.86;59.26;100031.66;2102891;28;19912;-67
2021/11/05 01:19:20;;;;;;;;;;;;;;;17.86;59.40;100034.38;2106288;28;20345;-66
2021/11/05 01:20:20;;;;;;;;;;;;;;;17.86;59.15;100026.19;2111717;28;19915;-66
2021/11/05 01:21:21;;;;;;;;;;;;;;;17.87;59.34;100032.50;2110440;28;19972;-67
2021/11/05 01:22:21;;;;;;;;;;;;;;;17.86;59.41;100045.28;2121591;27;19911;-66
2021/11/05 01:23:21;;;;;;;;;;;;;;;17.86;59.11;100042.56;2123046;27;19934;-67
2021/11/05 01:24:22;;;;;;;;;;;;;;;17.86;59.34;100042.56;2126618;27;19911;-66
2021/11/05 01:25:22;;;;;;;;;;;;;;;17.86;59.36;100048.00;2121821;28;19915;-67
2021/11/05 01:26:22;;;;;;;;;;;;;;;17.86;59.35;100048.00;2120644;27;20367;-67
2021/11/05 01:27:25;;;;;;;;;;;;;;;17.86;59.29;100047.13;2120627;28;19915;-67
2021/11/05 01:28:25;;;;;;;;;;;;;;;17.86;59.25;100053.47;2121605;27;20384;-67
2021/11/05 01:29:26;;;;;;;;;;;;;;;17.86;59.37;100048.00;2117676;27;20403;-67
2021/11/05 01:30:26;;;;;;;;;;;;;;;17.85;59.39;100050.88;2120903;27;19915;-67
2021/11/05 01:31:26;;;;;;;;;;;;;;;17.85;59.39;100054.44;2122017;28;19951;-67
2021/11/05 01:32:27;;;;;;;;;;;;;;;17.85;59.30;100046.25;2118294;27;19955;-67
2021/11/05 01:33:28;;;;;;;;;;;;;;;17.84;59.31;100044.56;2121663;28;20006;-64
2021/11/05 01:34:28;;;;;;;;;;;;;;;17.85;59.13;100043.53;2100137;27;19962;-65
2021/11/05 01:35:28;;;;;;;;;;;;;;;17.85;59.34;100040.81;2091992;28;19912;-64
2021/11/05 01:36:29;;;;;;;;;;;;;;;17.85;59.26;100039.97;2097498;28;19916;-63
2021/11/05 01:37:29;;;;;;;;;;;;;;;17.84;59.25;100043.69;2105431;27;20010;-64
2021/11/05 01:38:29;;;;;;;;;;;;;;;17.84;59.34;100039.09;2109242;28;19918;-64
2021/11/05 01:39:30;;;;;;;;;;;;;;;17.83;59.35;100040.09;2105167;27;19926;-64
2021/11/05 01:40:30;;;;;;;;;;;;;;;17.84;59.35;100044.56;2105211;27;19944;-64
2021/11/05 01:41:30;;;;;;;;;;;;;;;17.84;59.39;100050.00;2108616;28;19952;-64
2021/11/05 01:42:33;;;;;;;;;;;;;;;17.83;59.36;100037.34;2093941;28;20323;-64
2021/11/05 01:43:33;;;;;;;;;;;;;;;17.84;59.28;100041.81;2088663;28;19920;-64
2021/11/05 01:44:34;;;;;;;;;;;;;;;17.84;59.37;100040.97;2095943;28;20059;-63
2021/11/05 01:45:34;;;;;;;;;;;;;;;17.84;59.35;100044.56;2105282;27;20320;-64
2021/11/05 01:46:41;;;;;;;;;;;;;;;17.83;59.25;100045.53;2108134;28;19916;-64
2021/11/05 01:47:41;;;;;;;;;;;;;;;17.82;59.13;100038.38;2104930;27;19907;-64
2021/11/05 01:48:41;;;;;;;;;;;;;;;17.83;59.20;100037.34;2104384;27;19907;-64
2021/11/05 01:49:42;;;;;;;;;;;;;;;17.84;59.24;100044.56;2109012;28;19943;-64
2021/11/05 01:50:42;;;;;;;;;;;;;;;17.83;59.40;100042.81;2102450;27;19948;-64
2021/11/05 01:51:42;;;;;;;;;;;;;;;17.83;59.20;100048.28;2099548;28;19912;-64
2021/11/05 01:52:43;;;;;;;;;;;;;;;17.83;59.30;100036.50;2102450;27;19904;-64
2021/11/05 01:53:46;;;;;;;;;;;;;;;17.82;59.14;100046.56;2099940;28;19947;-64
2021/11/05 01:54:46;;;;;;;;;;;;;;;17.83;59.29;100053.72;2098919;28;20028;-64
2021/11/05 01:55:47;;;;;;;;;;;;;;;17.83;59.35;100053.72;2090935;28;19959;-64
2021/11/05 01:56:47;;;;;;;;;;;;;;;17.83;59.35;100053.72;2101229;28;19916;-64
2021/11/05 01:57:48;;;;;;;;;;;;;;;17.82;59.35;100052.00;2102346;28;19916;-64
2021/11/05 01:58:48;;;;;;;;;;;;;;;17.81;59.41;100055.75;2092759;28;19923;-64
2021/11/05 01:59:52;;;;;;;;;;;;;;;17.82;59.31;100057.47;2097351;28;19916;-64
2021/11/05 02:00:52;;;;;;;;;;;;;;;17.81;59.31;100050.31;2105237;28;19911;-64
2021/11/05 02:01:53;;;;;;;;;;;;;;;17.82;59.39;100057.47;2103247;27;20254;-64
2021/11/05 02:02:54;;;;;;;;;;;;;;;17.81;59.25;100050.31;2105568;28;19923;-64
2021/11/05 02:03:54;;;;;;;;;;;;;;;17.82;59.17;100048.44;2102745;27;19907;-64
2021/11/05 02:04:55;;;;;;;;;;;;;;;17.81;59.20;100053.03;2105720;27;20343;-64
2021/11/05 02:05:57;;;;;;;;;;;;;;;17.81;59.32;100055.75;2092186;28;20288;-64
2021/11/05 02:06:58;;;;;;;;;;;;;;;17.81;59.13;100058.47;2091016;28;19916;-64
2021/11/05 02:07:59;;;;;;;;;;;;;;;17.81;59.41;100054.88;2098846;27;19919;-64
2021/11/05 02:09:00;;;;;;;;;;;;;;;17.81;59.25;100058.47;2102249;28;19907;-64
2021/11/05 02:10:04;;;;;;;;;;;;;;;17.81;59.21;100049.41;2100830;27;20018;-64
2021/11/05 02:11:05;;;;;;;;;;;;;;;17.81;59.35;100055.75;2108120;28;20355;-64
2021/11/05 02:12:06;;;;;;;;;;;;;;;17.81;59.38;100054.88;2100295;27;20294;-64
2021/11/05 02:13:06;;;;;;;;;;;;;;;17.80;59.42;100048.56;2100226;27;19912;-65
2021/11/05 02:14:10;;;;;;;;;;;;;;;17.81;59.11;100052.16;2100689;28;19916;-65
2021/11/05 02:15:11;;;;;;;;;;;;;;;17.80;59.25;100048.56;2100749;27;19908;-64
2021/11/05 02:16:12;;;;;;;;;;;;;;;17.80;59.11;100043.09;2099773;27;20534;-65
2021/11/05 02:17:13;;;;;;;;;;;;;;;17.80;59.19;100043.09;2099890;28;20378;-64
2021/11/05 02:18:14;;;;;;;;;;;;;;;17.80;59.38;100043.09;2100836;27;20408;-64
2021/11/05 02:19:18;;;;;;;;;;;;;;;17.79;59.12;100039.50;2099495;28;20776;-65
2021/11/05 02:20:21;;;;;;;;;;;;;;;17.79;59.10;100047.66;2104839;27;19911;-64
2021/11/05 02:21:28;;;;;;;;;;;;;;;17.80;59.35;100048.56;2107765;27;19911;-66
2021/11/05 02:22:29;;;;;;;;;;;;;;;17.80;59.25;100043.09;2109146;27;19907;-64
2021/11/05 02:23:29;;;;;;;;;;;;;;;17.79;59.29;100053.13;2107373;27;19923;-64
2021/11/05 02:24:30;;;;;;;;;;;;;;;17.79;59.25;100041.38;2107718;27;19916;-64
2021/11/05 02:25:30;;;;;;;;;;;;;;;17.77;59.34;100049.69;2108591;27;19964;-64
2021/11/05 02:26:30;;;;;;;;;;;;;;;17.80;59.39;100048.56;2103885;27;20427;-64
2021/11/05 02:27:31;;;;;;;;;;;;;;;17.79;59.13;100046.81;2107978;27;20071;-64
2021/11/05 02:28:35;;;;;;;;;;;;;;;17.79;59.09;100052.28;2104096;27;20298;-64
2021/11/05 02:29:36;;;;;;;;;;;;;;;17.79;59.38;100050.41;2105363;27;20010;-64
2021/11/05 02:30:36;;;;;;;;;;;;;;;17.79;59.38;100052.28;2105903;27;19919;-64
2021/11/05 02:31:36;;;;;;;;;;;;;;;17.79;59.27;100041.38;2109271;27;19912;-64
2021/11/05 02:32:37;;;;;;;;;;;;;;;17.79;59.35;100052.28;2107916;27;20336;-64
2021/11/05 02:33:38;;;;;;;;;;;;;;;17.79;59.09;100046.81;2108156;27;19915;-64
2021/11/05 02:34:39;;;;;;;;;;;;;;;17.78;59.40;100045.06;2095488;28;20408;-64
2021/11/05 02:35:39;;;;;;;;;;;;;;;17.77;59.14;100049.69;2086669;28;19991;-64
2021/11/05 02:36:39;;;;;;;;;;;;;;;17.79;59.19;100055.00;2099373;28;20357;-64
2021/11/05 02:37:41;;;;;;;;;;;;;;;17.78;59.40;100055.97;2104373;27;19914;-64
2021/11/05 02:38:41;;;;;;;;;;;;;;;17.78;59.40;100061.44;2107519;27;19937;-64
2021/11/05 02:39:42;;;;;;;;;;;;;;;17.79;59.21;100057.72;2102036;27;19973;-64
2021/11/05 02:40:42;;;;;;;;;;;;;;;17.77;59.27;100048.81;2102489;27;19943;-64
2021/11/05 02:41:44;;;;;;;;;;;;;;;17.77;59.20;100049.69;2109383;27;20458;-64
2021/11/05 02:42:44;;;;;;;;;;;;;;;17.77;59.28;100054.28;2105150;27;20466;-65
2021/11/05 02:43:45;;;;;;;;;;;;;;;17.77;59.07;100054.28;2103465;27;20411;-65
2021/11/05 02:44:45;;;;;;;;;;;;;;;17.78;59.28;100055.97;2101511;27;20325;-65
2021/11/05 02:45:47;;;;;;;;;;;;;;;17.77;59.36;100055.13;2106466;27;19979;-65
2021/11/05 02:46:47;;;;;;;;;;;;;;;17.77;59.19;100055.13;2108691;27;20222;-65
2021/11/05 02:47:48;;;;;;;;;;;;;;;17.77;59.10;100054.28;2104606;27;19959;-65
2021/11/05 02:48:48;;;;;;;;;;;;;;;17.78;59.11;100061.44;2106872;27;19914;-65
2021/11/05 02:49:49;;;;;;;;;;;;;;;17.78;59.36;100067.78;2096944;28;19923;-65
2021/11/05 02:50:49;;;;;;;;;;;;;;;17.76;59.36;100058.88;2098370;28;19920;-65
2021/11/05 02:51:49;;;;;;;;;;;;;;;17.77;59.36;100066.03;2108843;27;19968;-65
2021/11/05 02:52:50;;;;;;;;;;;;;;;17.77;59.33;100057.84;2106874;27;19919;-65
2021/11/05 02:53:50;;;;;;;;;;;;;;;17.76;59.14;100057.97;2106208;27;20381;-64
2021/11/05 02:54:51;;;;;;;;;;;;;;;17.76;59.14;100060.72;2109127;27;19966;-64
2021/11/05 02:55:51;;;;;;;;;;;;;;;17.77;59.20;100062.44;2106314;27;19919;-65
2021/11/05 02:56:52;;;;;;;;;;;;;;;17.76;59.34;100061.59;2103931;27;19912;-65
2021/11/05 02:57:52;;;;;;;;;;;;;;;17.76;59.22;100060.72;2100329;27;19915;-64
2021/11/05 02:58:52;;;;;;;;;;;;;;;17.76;59.15;100061.59;2102502;27;20109;-64
2021/11/05 02:59:53;;;;;;;;;;;;;;;17.77;59.34;100065.19;2106861;27;19919;-64
2021/11/05 03:00:55;;;;;;;;;;;;;;;17.76;59.21;100064.31;2106050;27;20361;-64
2021/11/05 03:01:55;;;;;;;;;;;;;;;17.76;59.36;100058.88;2106507;27;19920;-64
2021/11/05 03:02:55;;;;;;;;;;;;;;;17.75;59.17;100067.19;2098308;28;20421;-64
2021/11/05 03:04:03;;;;;;;;;;;;;;;17.76;59.21;100063.44;2096695;28;20015;-65
2021/11/05 03:05:03;;;;;;;;;;;;;;;17.75;59.40;100064.47;2106953;27;20293;-63
2021/11/05 03:06:04;;;;;;;;;;;;;;;17.76;59.42;100058.88;2107219;27;19958;-63
2021/11/05 03:07:05;;;;;;;;;;;;;;;17.75;59.28;100056.28;2104898;27;19919;-64
2021/11/05 03:08:06;;;;;;;;;;;;;;;17.75;59.43;100062.59;2104807;27;19916;-64
2021/11/05 03:09:11;;;;;;;;;;;;;;;17.76;59.25;100057.97;2107131;27;19915;-65
2021/11/05 03:10:14;;;;;;;;;;;;;;;17.75;59.22;100061.72;2105898;27;19916;-64
2021/11/05 03:11:14;;;;;;;;;;;;;;;17.75;59.34;100056.28;2105536;27;19993;-64
2021/11/05 03:12:14;;;;;;;;;;;;;;;17.75;59.36;100053.56;2105243;27;19916;-64
2021/11/05 03:13:15;;;;;;;;;;;;;;;17.75;59.36;100056.28;2106216;27;19919;-64
2021/11/05 03:14:15;;;;;;;;;;;;;;;17.74;59.24;100063.59;2105159;27;20011;-65
2021/11/05 03:15:16;;;;;;;;;;;;;;;17.74;59.27;100060.03;2103247;27;19918;-65
2021/11/05 03:16:16;;;;;;;;;;;;;;;17.74;59.41;100060.88;2106359;27;19915;-65
2021/11/05 03:17:16;;;;;;;;;;;;;;;17.74;59.38;100060.03;2106974;27;19951;-64
2021/11/05 03:18:17;;;;;;;;;;;;;;;17.74;59.15;100063.59;2108162;27;19916;-64
2021/11/05 03:19:17;;;;;;;;;;;;;;;17.75;59.34;100067.19;2101280;27;20054;-65
2021/11/05 03:20:18;;;;;;;;;;;;;;;17.74;59.12;100065.47;2109216;27;19962;-64
2021/11/05 03:21:18;;;;;;;;;;;;;;;17.74;59.22;100065.47;2104887;27;19945;-65
2021/11/05 03:22:19;;;;;;;;;;;;;;;17.74;59.32;100060.03;2104806;27;19908;-64
2021/11/05 03:23:19;;;;;;;;;;;;;;;17.74;59.29;100065.47;2104620;27;20313;-65
2021/11/05 03:24:19;;;;;;;;;;;;;;;17.74;59.32;100066.31;2102116;27;19920;-64
2021/11/05 03:25:20;;;;;;;;;;;;;;;17.74;59.41;100062.75;2101096;27;19927;-64
2021/11/05 03:26:20;;;;;;;;;;;;;;;17.74;59.24;100065.47;2091465;28;20262;-65
2021/11/05 03:27:21;;;;;;;;;;;;;;;17.74;59.18;100070.94;2097125;28;19955;-64
2021/11/05 03:28:21;;;;;;;;;;;;;;;17.74;59.35;100065.47;2107627;27;20282;-64
2021/11/05 03:29:22;;;;;;;;;;;;;;;17.74;59.23;100068.19;2107760;27;19954;-65
2021/11/05 03:30:23;;;;;;;;;;;;;;;17.74;59.13;100066.31;2101607;27;19980;-65
2021/11/05 03:31:23;;;;;;;;;;;;;;;17.73;59.30;100061.84;2100301;27;19919;-64
2021/11/05 03:32:23;;;;;;;;;;;;;;;17.72;59.40;100062.88;2107787;27;20191;-65
2021/11/05 03:33:24;;;;;;;;;;;;;;;17.73;59.39;100069.19;2108053;27;19964;-65
2021/11/05 03:34:24;;;;;;;;;;;;;;;17.73;59.30;100064.59;2104795;27;19998;-64
2021/11/05 03:35:25;;;;;;;;;;;;;;;17.73;59.13;100063.72;2107867;27;20907;-64
2021/11/05 03:36:25;;;;;;;;;;;;;;;17.72;59.23;100062.03;2108100;27;19911;-64
2021/11/05 03:37:26;;;;;;;;;;;;;;;17.73;59.38;100069.19;2108794;27;19919;-65
2021/11/05 03:38:26;;;;;;;;;;;;;;;17.73;59.37;100063.72;2109710;27;19916;-65
2021/11/05 03:39:27;;;;;;;;;;;;;;;17.72;59.29;100062.03;2107824;27;20000;-65
2021/11/05 03:40:27;;;;;;;;;;;;;;;17.72;59.42;100067.47;2105529;27;20457;-65
2021/11/05 03:41:28;;;;;;;;;;;;;;;17.72;59.38;100072.94;2103654;27;19919;-64
2021/11/05 03:42:28;;;;;;;;;;;;;;;17.73;59.36;100069.19;2103449;27;20227;-65
2021/11/05 03:43:29;;;;;;;;;;;;;;;17.73;59.25;100080.09;2107996;27;19915;-65
2021/11/05 03:44:30;;;;;;;;;;;;;;;17.72;59.12;100070.19;2107988;27;20068;-65
2021/11/05 03:45:30;;;;;;;;;;;;;;;17.71;59.34;100074.78;2106206;27;19976;-65
2021/11/05 03:46:32;;;;;;;;;;;;;;;17.71;59.15;100077.53;2107889;27;20258;-65
2021/11/05 03:47:33;;;;;;;;;;;;;;;17.71;59.44;100077.53;2105057;27;20381;-65
2021/11/05 03:48:39;;;;;;;;;;;;;;;17.72;59.17;100078.38;2100975;27;20300;-65
2021/11/05 03:49:39;;;;;;;;;;;;;;;17.71;59.36;100085.69;2103906;27;20400;-65
2021/11/05 03:50:39;;;;;;;;;;;;;;;17.71;59.16;100079.38;2105638;27;19920;-65
2021/11/05 03:51:40;;;;;;;;;;;;;;;17.71;59.35;100088.44;2100815;27;20108;-65
2021/11/05 03:52:40;;;;;;;;;;;;;;;17.72;59.21;100089.28;2110569;27;19926;-65
2021/11/05 03:53:40;;;;;;;;;;;;;;;17.70;59.33;100091.28;2104527;27;20080;-65
2021/11/05 03:54:44;;;;;;;;;;;;;;;17.71;59.38;100088.44;2108335;27;19907;-66
2021/11/05 03:55:50;;;;;;;;;;;;;;;17.71;59.43;100088.44;2106838;27;20376;-65
2021/11/05 03:56:50;;;;;;;;;;;;;;;17.71;59.50;100090.25;2105481;27;19914;-65
2021/11/05 03:57:51;;;;;;;;;;;;;;;17.70;59.40;100092.13;2109271;27;19903;-65
2021/11/05 03:58:51;;;;;;;;;;;;;;;17.70;59.24;100094.88;2098174;28;20306;-65
2021/11/05 03:59:52;;;;;;;;;;;;;;;17.71;59.16;100101.16;2098135;28;19922;-65
2021/11/05 04:00:53;;;;;;;;;;;;;;;17.71;59.19;100098.44;2089941;28;19923;-65
2021/11/05 04:01:53;;;;;;;;;;;;;;;17.70;59.44;100092.13;2092251;28;19959;-65
2021/11/05 04:02:53;;;;;;;;;;;;;;;17.70;59.48;100096.75;2092688;28;19915;-65
2021/11/05 04:03:54;;;;;;;;;;;;;;;17.70;59.29;100099.47;2098134;28;19907;-65
2021/11/05 04:04:55;;;;;;;;;;;;;;;17.69;59.43;100095.88;2104760;27;19922;-65
2021/11/05 04:05:56;;;;;;;;;;;;;;;17.70;59.40;100100.31;2108690;27;19938;-65
2021/11/05 04:06:56;;;;;;;;;;;;;;;17.69;59.37;100095.88;2103570;27;20314;-65
2021/11/05 04:07:57;;;;;;;;;;;;;;;17.70;59.31;100102.19;2107577;27;20165;-64
2021/11/05 04:08:57;;;;;;;;;;;;;;;17.69;59.26;100101.34;2108041;27;20381;-64
2021/11/05 04:09:58;;;;;;;;;;;;;;;17.69;59.31;100101.34;2103468;27;20286;-65
2021/11/05 04:11:00;;;;;;;;;;;;;;;17.69;59.24;100109.50;2107586;27;19912;-64
2021/11/05 04:12:00;;;;;;;;;;;;;;;17.69;59.12;100105.94;2118770;27;20313;-67
2021/11/05 04:13:01;;;;;;;;;;;;;;;17.70;59.23;100113.09;2119156;27;19915;-67
2021/11/05 04:14:02;;;;;;;;;;;;;;;17.69;59.27;100114.97;2113114;28;19912;-67
2021/11/05 04:15:04;;;;;;;;;;;;;;;17.69;59.17;100116.84;2107110;28;19922;-64
2021/11/05 04:16:04;;;;;;;;;;;;;;;17.69;59.18;100116.84;2107155;27;19919;-64
2021/11/05 04:17:04;;;;;;;;;;;;;;;17.69;59.40;100116.84;2098126;28;19915;-65
2021/11/05 04:18:05;;;;;;;;;;;;;;;17.69;59.41;100109.50;2097420;28;20270;-64
2021/11/05 04:19:05;;;;;;;;;;;;;;;17.69;59.18;100116.84;2107342;27;20301;-64
2021/11/05 04:20:06;;;;;;;;;;;;;;;17.69;59.29;100114.97;2107232;27;20389;-64
2021/11/05 04:21:07;;;;;;;;;;;;;;;17.69;59.49;100111.38;2106776;27;20155;-64
2021/11/05 04:22:07;;;;;;;;;;;;;;;17.69;59.19;100114.09;2105505;27;19979;-64
2021/11/05 04:23:07;;;;;;;;;;;;;;;17.68;59.26;100115.94;2105147;27;20283;-64
2021/11/05 04:24:08;;;;;;;;;;;;;;;17.68;59.47;100106.91;2104969;27;19916;-64
2021/11/05 04:25:09;;;;;;;;;;;;;;;17.68;59.29;100115.09;2107241;27;19915;-64
2021/11/05 04:26:09;;;;;;;;;;;;;;;17.68;59.20;100120.53;2099837;27;19923;-64
2021/11/05 04:27:09;;;;;;;;;;;;;;;17.68;59.13;100117.81;2106614;27;20178;-64
2021/11/05 04:28:10;;;;;;;;;;;;;;;17.69;59.42;100122.28;2108326;27;19914;-64
2021/11/05 04:29:10;;;;;;;;;;;;;;;17.68;59.44;100115.09;2102942;27;19972;-63
2021/11/05 04:30:12;;;;;;;;;;;;;;;17.68;59.30;100126.00;2101911;27;19944;-64
2021/11/05 04:31:13;;;;;;;;;;;;;;;17.67;59.29;100125.16;2097425;28;20417;-64
2021/11/05 04:32:13;;;;;;;;;;;;;;;17.68;59.30;100123.28;2095553;28;20324;-64
2021/11/05 04:33:14;;;;;;;;;;;;;;;17.67;59.25;100125.16;2090802;28;19916;-64
2021/11/05 04:34:14;;;;;;;;;;;;;;;17.68;59.29;100120.53;2097301;28;19908;-64
2021/11/05 04:35:14;;;;;;;;;;;;;;;17.67;59.46;100118.84;2099495;27;19922;-63
2021/11/05 04:36:17;;;;;;;;;;;;;;;17.67;59.48;100121.56;2098458;27;19907;-64
2021/11/05 04:37:18;;;;;;;;;;;;;;;17.67;59.33;100124.28;2098959;28;20416;-64
2021/11/05 04:38:19;;;;;;;;;;;;;;;17.66;59.34;100128.84;2100377;28;20358;-64
2021/11/05 04:39:21;;;;;;;;;;;;;;;17.67;59.27;100135.19;2104701;27;19911;-64
2021/11/05 04:40:21;;;;;;;;;;;;;;;17.66;59.25;100128.00;2096334;28;19920;-64
2021/11/05 04:41:23;;;;;;;;;;;;;;;17.66;59.17;100128.00;2099430;28;19915;-65
2021/11/05 04:42:23;;;;;;;;;;;;;;;17.66;59.25;100134.31;2102219;27;19916;-64
2021/11/05 04:43:23;;;;;;;;;;;;;;;17.66;59.38;100134.31;2089793;28;20468;-64
2021/11/05 04:44:29;;;;;;;;;;;;;;;17.67;59.28;100137.91;2096744;28;19939;-64
2021/11/05 04:45:29;;;;;;;;;;;;;;;17.66;59.30;100144.34;2105679;27;20001;-64
2021/11/05 04:46:30;;;;;;;;;;;;;;;17.66;59.45;100141.63;2099064;28;19908;-64
2021/11/05 04:47:30;;;;;;;;;;;;;;;17.66;59.37;100145.22;2095996;28;19968;-64
2021/11/05 04:48:30;;;;;;;;;;;;;;;17.66;59.37;100141.63;2105899;27;19914;-65
2021/11/05 04:49:31;;;;;;;;;;;;;;;17.66;59.25;100144.34;2106652;27;20240;-64
2021/11/05 04:50:31;;;;;;;;;;;;;;;17.65;59.40;100148.94;2106345;27;19915;-65
2021/11/05 04:51:32;;;;;;;;;;;;;;;17.66;59.35;100155.25;2107402;27;20064;-64
2021/11/05 04:52:32;;;;;;;;;;;;;;;17.65;59.22;100148.94;2106824;27;19958;-64
2021/11/05 04:53:32;;;;;;;;;;;;;;;17.66;59.26;100141.63;2099626;27;19972;-64
2021/11/05 04:54:33;;;;;;;;;;;;;;;17.65;59.36;100150.81;2099226;27;19920;-64
2021/11/05 04:55:33;;;;;;;;;;;;;;;17.65;59.36;100153.53;2102892;27;20054;-65
2021/11/05 04:56:34;;;;;;;;;;;;;;;17.65;59.15;100156.28;2102186;27;20001;-65
2021/11/05 04:57:34;;;;;;;;;;;;;;;17.64;59.42;100157.25;2100468;27;19912;-64
2021/11/05 04:58:35;;;;;;;;;;;;;;;17.65;59.48;100153.53;2102545;27;19988;-64
2021/11/05 04:59:36;;;;;;;;;;;;;;;17.65;59.17;100159.00;2096355;28;20227;-64
2021/11/05 05:00:36;;;;;;;;;;;;;;;17.64;59.43;100157.25;2098533;28;20590;-64
2021/11/05 05:01:37;;;;;;;;;;;;;;;17.65;59.32;100159.00;2105579;27;19904;-64
2021/11/05 05:02:38;;;;;;;;;;;;;;;17.66;59.17;100157.97;2099740;27;20429;-64
2021/11/05 05:03:38;;;;;;;;;;;;;;;17.64;59.16;100159.97;2106809;27;19915;-64
2021/11/05 05:04:39;;;;;;;;;;;;;;;17.65;59.45;100159.00;2106244;27;19915;-64
2021/11/05 05:05:39;;;;;;;;;;;;;;;17.64;59.32;100162.69;2108026;27;20182;-64
2021/11/05 05:06:39;;;;;;;;;;;;;;;17.65;59.38;100156.28;2105369;27;19916;-65
2021/11/05 05:07:40;;;;;;;;;;;;;;;17.64;59.38;100165.44;2106247;27;20021;-65
2021/11/05 05:08:41;;;;;;;;;;;;;;;17.63;59.34;100159.13;2102524;27;19922;-64
2021/11/05 05:09:41;;;;;;;;;;;;;;;17.64;59.13;100168.16;2103599;27;20483;-64
2021/11/05 05:10:41;;;;;;;;;;;;;;;17.64;59.33;100162.69;2119507;27;19957;-66
2021/11/05 05:11:45;;;;;;;;;;;;;;;17.63;59.21;100175.47;2121544;27;19919;-67
2021/11/05 05:12:46;;;;;;;;;;;;;;;17.64;59.32;100162.69;2117842;27;20361;-67